createdAt,value
2022-10-07T00:02:06.908Z,102400.84
2022-10-07T00:04:34.143Z,102438.00
2022-10-07T00:07:00.472Z,102272.81
2022-10-07T00:09:26.815Z,102273.72
2022-10-07T00:11:53.116Z,102428.69
2022-10-07T00:14:19.487Z,102362.88
2022-10-07T00:16:45.947Z,102360.31
2022-10-07T00:19:13.209Z,102424.28
2022-10-07T00:21:40.119Z,102414.84
2022-10-07T00:24:07.632Z,102005.78
2022-10-07T00:26:35.871Z,102420.00
2022-10-07T00:29:03.783Z,102342.16
2022-10-07T00:31:33.409Z,102417.44
2022-10-07T00:34:00.190Z,102372.47
2022-10-07T00:36:29.544Z,102403.59
2022-10-07T00:38:58.438Z,102138.06
2022-10-07T00:41:36.357Z,102381.19
2022-10-07T00:44:35.390Z,102401.91
2022-10-07T00:47:24.790Z,101796.88
2022-10-07T00:49:56.671Z,102406.31
2022-10-07T00:52:26.129Z,102400.19
2022-10-07T00:54:55.126Z,102298.00
2022-10-07T00:57:24.227Z,102298.91
2022-10-07T00:59:51.732Z,102341.31
2022-10-07T01:02:18.175Z,102328.31
2022-10-07T01:04:46.141Z,102263.38
2022-10-07T01:07:12.486Z,102374.16
2022-10-07T01:09:38.914Z,102330.03
2022-10-07T01:12:19.540Z,102375.88
2022-10-07T01:15:03.862Z,102251.25
2022-10-07T01:17:47.616Z,102362.88
2022-10-07T01:20:40.332Z,102345.84
2022-10-07T01:23:20.800Z,102355.03
2022-10-07T01:26:14.023Z,102282.34
2022-10-07T01:28:46.738Z,102352.41
2022-10-07T01:31:17.763Z,102231.31
2022-10-07T01:33:46.253Z,102250.31
2022-10-07T01:36:22.578Z,102345.47
2022-10-07T01:38:53.159Z,102336.75
2022-10-07T01:41:21.532Z,102220.00
2022-10-07T01:43:52.741Z,102256.28
2022-10-07T01:46:23.897Z,102261.50
2022-10-07T01:48:51.664Z,102292.66
2022-10-07T01:51:24.001Z,102303.91
2022-10-07T01:54:05.768Z,102314.25
2022-10-07T01:57:07.482Z,102314.25
2022-10-07T01:59:55.648Z,102304.69
2022-10-07T02:02:44.073Z,102304.63
2022-10-07T02:05:13.307Z,102296.78
2022-10-07T02:08:15.417Z,102252.72
2022-10-07T02:11:14.769Z,102214.56
2022-10-07T02:13:57.832Z,102256.97
2022-10-07T02:16:44.404Z,102279.41
2022-10-07T02:19:17.003Z,102192.09
2022-10-07T02:21:48.381Z,102266.38
2022-10-07T02:24:18.011Z,102205.88
2022-10-07T02:26:47.135Z,102124.59
2022-10-07T02:29:16.004Z,102270.69
2022-10-07T02:31:44.901Z,102263.75
2022-10-07T02:34:19.555Z,102224.84
2022-10-07T02:36:52.740Z,102174.63
2022-10-07T02:39:19.116Z,102251.56
2022-10-07T02:42:09.530Z,102186.72
2022-10-07T02:45:02.157Z,102246.22
2022-10-07T02:47:36.564Z,102113.13
2022-10-07T02:50:07.250Z,102151.22
2022-10-07T02:52:34.872Z,102226.34
2022-10-07T02:55:08.106Z,102177.97
2022-10-07T02:57:39.749Z,102163.31
2022-10-07T03:00:10.952Z,102184.03
2022-10-07T03:02:44.636Z,102072.59
2022-10-07T03:05:12.597Z,102166.81
2022-10-07T03:07:39.487Z,102228.09
2022-10-07T03:10:08.942Z,102141.59
2022-10-07T03:12:35.265Z,102152.84
2022-10-07T03:15:01.626Z,102183.13
2022-10-07T03:17:27.964Z,102163.25
2022-10-07T03:19:54.294Z,102186.56
2022-10-07T03:22:20.950Z,102075.94
2022-10-07T03:24:47.381Z,102199.41
2022-10-07T03:27:13.814Z,102139.78
2022-10-07T03:29:40.142Z,102143.13
2022-10-07T03:32:06.536Z,102051.72
2022-10-07T03:34:32.924Z,102201.94
2022-10-07T03:36:59.694Z,102031.00
2022-10-07T03:39:26.075Z,102177.78
2022-10-07T03:41:52.522Z,102195.06
2022-10-07T03:44:19.366Z,102046.50
2022-10-07T03:46:49.363Z,102194.22
2022-10-07T03:49:16.091Z,102064.69
2022-10-07T03:51:42.620Z,102089.84
2022-10-07T03:54:08.985Z,102147.72
2022-10-07T03:56:35.363Z,102190.97
2022-10-07T03:59:02.019Z,102186.66
2022-10-07T04:01:31.459Z,102179.75
2022-10-07T04:04:00.404Z,102123.66
2022-10-07T04:06:27.306Z,102178.00
2022-10-07T04:08:55.288Z,102174.53
2022-10-07T04:11:24.063Z,102159.00
2022-10-07T04:13:51.538Z,102132.19
2022-10-07T04:16:18.054Z,102085.56
2022-10-07T04:18:45.743Z,102158.97
2022-10-07T04:21:12.362Z,102139.16
2022-10-07T04:23:40.991Z,102165.09
2022-10-07T04:26:12.095Z,102168.56
2022-10-07T04:28:38.934Z,102159.88
2022-10-07T04:31:06.953Z,102131.41
2022-10-07T04:33:33.365Z,102157.25
2022-10-07T04:36:10.391Z,102144.38
2022-10-07T04:38:36.775Z,102114.09
2022-10-07T04:41:06.696Z,102152.06
2022-10-07T04:43:36.643Z,102118.34
2022-10-07T04:46:09.022Z,102084.72
2022-10-07T04:48:35.843Z,102169.47
2022-10-07T04:51:06.480Z,102058.84
2022-10-07T04:53:33.333Z,102146.06
2022-10-07T04:56:00.519Z,102120.25
2022-10-07T04:58:28.126Z,102138.28
2022-10-07T05:00:56.379Z,102134.81
2022-10-07T05:03:25.648Z,102110.59
2022-10-07T05:05:54.729Z,102044.19
2022-10-07T05:08:25.035Z,102078.69
2022-10-07T05:10:58.381Z,102128.75
2022-10-07T05:13:26.164Z,102122.69
2022-10-07T05:16:00.903Z,102126.16
2022-10-07T05:18:29.015Z,102127.06
2022-10-07T05:20:56.202Z,102121.91
2022-10-07T05:23:28.431Z,102048.63
2022-10-07T05:26:04.845Z,102121.91
2022-10-07T05:28:31.438Z,102070.09
2022-10-07T05:31:08.439Z,102087.41
2022-10-07T05:33:35.434Z,102117.72
2022-10-07T05:36:03.831Z,102113.34
2022-10-07T05:38:30.190Z,102078.81
2022-10-07T05:40:59.386Z,102083.97
2022-10-07T05:43:27.653Z,102111.59
2022-10-07T05:46:06.036Z,102112.44
2022-10-07T05:48:38.795Z,102013.09
2022-10-07T05:51:09.055Z,102023.44
2022-10-07T05:53:35.434Z,102046.78
2022-10-07T05:56:09.347Z,102078.66
2022-10-07T05:58:36.097Z,102085.56
2022-10-07T06:01:07.687Z,102094.09
2022-10-07T06:03:37.070Z,102091.50
2022-10-07T06:06:03.704Z,102013.75
2022-10-07T06:08:30.165Z,102091.44
2022-10-07T06:11:20.430Z,102088.81
2022-10-07T06:13:51.364Z,102076.66
2022-10-07T06:16:18.140Z,102030.09
2022-10-07T06:18:45.793Z,102087.84
2022-10-07T06:21:12.558Z,102064.53
2022-10-07T06:23:39.026Z,102061.00
2022-10-07T06:26:07.473Z,102029.00
2022-10-07T06:28:38.966Z,102060.81
2022-10-07T06:31:10.023Z,102083.25
2022-10-07T06:33:37.019Z,102078.88
2022-10-07T06:36:05.419Z,102092.66
2022-10-07T06:38:32.066Z,102083.03
2022-10-07T06:41:02.707Z,102089.00
2022-10-07T06:43:30.839Z,102085.47
2022-10-07T06:46:02.171Z,102071.47
2022-10-07T06:48:31.981Z,102044.59
2022-10-07T06:50:58.997Z,102068.66
2022-10-07T06:53:26.508Z,102076.34
2022-10-07T06:55:57.889Z,102067.47
2022-10-07T06:58:25.899Z,102052.72
2022-10-07T07:00:56.883Z,102077.63
2022-10-07T07:03:24.308Z,102087.03
2022-10-07T07:05:54.472Z,102076.38
2022-10-07T07:08:23.032Z,102078.81
2022-10-07T07:10:49.551Z,102058.88
2022-10-07T07:13:16.093Z,102070.66
2022-10-07T07:15:42.518Z,102006.75
2022-10-07T07:18:10.501Z,101928.91
2022-10-07T07:20:38.217Z,102062.25
2022-10-07T07:23:06.664Z,102046.50
2022-10-07T07:25:39.957Z,102068.84
2022-10-07T07:28:07.749Z,102022.34
2022-10-07T07:30:37.124Z,102062.38
2022-10-07T07:33:04.155Z,101973.53
2022-10-07T07:35:32.721Z,102074.09
2022-10-07T07:38:02.599Z,102075.84
2022-10-07T07:40:28.907Z,102002.34
2022-10-07T07:42:55.687Z,102078.63
2022-10-07T07:45:23.121Z,102079.34
2022-10-07T07:47:51.109Z,102071.91
2022-10-07T07:50:20.687Z,102075.94
2022-10-07T07:52:47.881Z,102073.03
2022-10-07T07:55:15.008Z,102023.00
2022-10-07T07:57:42.303Z,102017.63
2022-10-07T08:00:11.534Z,101971.84
2022-10-07T08:02:38.209Z,102071.34
2022-10-07T08:05:04.721Z,102071.09
2022-10-07T08:07:32.960Z,102070.72
2022-10-07T08:09:59.287Z,102048.66
2022-10-07T08:12:25.606Z,102061.25
2022-10-07T08:14:52.339Z,102060.16
2022-10-07T08:17:18.728Z,101923.22
2022-10-07T08:19:45.056Z,102051.09
2022-10-07T08:22:17.313Z,101961.88
2022-10-07T08:24:43.720Z,102056.25
2022-10-07T08:27:10.399Z,101980.44
2022-10-07T08:29:37.561Z,102053.81
2022-10-07T08:32:03.993Z,101901.38
2022-10-07T08:34:32.678Z,101916.66
2022-10-07T08:36:59.001Z,102015.91
2022-10-07T08:39:27.717Z,101985.28
2022-10-07T08:42:15.164Z,102041.38
2022-10-07T08:44:44.436Z,102042.44
2022-10-07T08:47:30.246Z,102033.16
2022-10-07T08:50:06.128Z,102042.19
2022-10-07T08:52:41.288Z,102032.34
2022-10-07T08:55:39.466Z,102025.94
2022-10-07T08:58:44.009Z,102030.63
2022-10-07T09:01:29.146Z,101999.94
2022-10-07T09:04:15.147Z,102021.41
2022-10-07T09:07:01.086Z,102012.34
2022-10-07T09:09:34.581Z,102003.38
2022-10-07T09:12:03.618Z,101976.50
2022-10-07T09:14:38.116Z,102012.28
2022-10-07T09:17:10.788Z,102013.09
2022-10-07T09:19:43.480Z,101999.63
2022-10-07T09:22:36.000Z,101993.81
2022-10-07T09:25:22.228Z,101993.09
2022-10-07T09:27:50.420Z,101994.53
2022-10-07T09:30:16.832Z,101986.06
2022-10-07T09:32:49.300Z,101957.81
2022-10-07T09:35:18.988Z,101984.53
2022-10-07T09:37:56.285Z,101983.53
2022-10-07T09:40:35.230Z,101930.09
2022-10-07T09:43:09.621Z,101911.81
2022-10-07T09:45:36.520Z,101968.31
2022-10-07T09:48:16.966Z,101983.38
2022-10-07T09:50:44.667Z,101840.53
2022-10-07T09:53:26.242Z,101915.91
2022-10-07T09:55:54.413Z,101935.44
2022-10-07T09:58:27.784Z,101966.59
2022-10-07T10:00:56.761Z,101930.53
2022-10-07T10:03:30.195Z,101954.25
2022-10-07T10:06:02.170Z,101954.16
2022-10-07T10:08:40.922Z,101942.22
2022-10-07T10:11:25.680Z,101939.16
2022-10-07T10:13:52.539Z,101933.75
2022-10-07T10:16:24.934Z,101934.53
2022-10-07T10:19:05.163Z,101901.13
2022-10-07T10:21:40.614Z,101907.53
2022-10-07T10:24:13.694Z,101926.78
2022-10-07T10:26:57.336Z,101876.94
2022-10-07T10:29:45.833Z,101907.84
2022-10-07T10:32:30.806Z,101897.75
2022-10-07T10:35:14.229Z,101894.66
2022-10-07T10:37:40.608Z,101896.38
2022-10-07T10:40:27.917Z,101897.16
2022-10-07T10:43:22.455Z,101893.66
2022-10-07T10:46:13.138Z,101832.28
2022-10-07T10:49:06.804Z,101878.97
2022-10-07T10:51:49.979Z,101879.03
2022-10-07T10:54:50.317Z,101867.38
2022-10-07T10:58:01.478Z,101865.66
2022-10-07T11:00:41.006Z,101839.75
2022-10-07T11:03:25.703Z,101852.28
2022-10-07T11:05:55.509Z,101843.19
2022-10-07T11:08:27.813Z,101848.09
2022-10-07T11:11:00.241Z,101847.31
2022-10-07T11:13:43.980Z,101818.50
2022-10-07T11:16:23.698Z,101815.06
2022-10-07T11:19:05.467Z,101830.38
2022-10-07T11:21:40.933Z,101817.53
2022-10-07T11:24:19.870Z,101817.09
2022-10-07T11:27:02.695Z,101771.56
2022-10-07T11:29:28.967Z,101802.44
2022-10-07T11:32:07.998Z,101803.28
2022-10-07T11:34:54.794Z,101768.50
2022-10-07T11:37:27.238Z,101800.19
2022-10-07T11:39:53.671Z,101754.84
2022-10-07T11:42:24.604Z,101789.00
2022-10-07T11:45:02.494Z,101755.44
2022-10-07T11:47:36.569Z,101780.81
2022-10-07T11:50:26.566Z,101780.22
2022-10-07T11:52:56.160Z,101766.16
2022-10-07T11:55:29.109Z,101751.69
2022-10-07T11:57:59.865Z,101760.91
2022-10-07T12:00:31.568Z,101752.63
2022-10-07T12:03:18.147Z,101750.09
2022-10-07T12:05:50.349Z,101750.31
2022-10-07T12:08:38.384Z,101744.75
2022-10-07T12:11:16.496Z,101734.34
2022-10-07T12:13:48.581Z,101729.94
2022-10-07T12:16:24.127Z,101727.19
2022-10-07T12:19:10.888Z,101597.03
2022-10-07T12:22:08.342Z,101717.53
2022-10-07T12:24:36.666Z,101715.72
2022-10-07T12:27:19.289Z,101713.75
2022-10-07T12:29:50.067Z,101717.09
2022-10-07T12:32:50.992Z,101704.13
2022-10-07T12:35:29.555Z,101698.41
2022-10-07T12:38:13.679Z,101698.81
2022-10-07T12:40:42.349Z,101643.41
2022-10-07T12:43:33.601Z,101696.91
2022-10-07T12:46:05.138Z,101656.41
2022-10-07T12:48:45.372Z,101678.06
2022-10-07T12:51:19.288Z,101632.56
2022-10-07T12:53:48.015Z,101647.94
2022-10-07T12:56:21.784Z,101622.09
2022-10-07T12:59:39.978Z,101671.19
2022-10-07T13:02:44.188Z,101670.72
2022-10-07T13:05:29.055Z,101662.13
2022-10-07T13:08:36.056Z,101657.66
2022-10-07T13:11:27.236Z,101652.69
2022-10-07T13:14:02.423Z,101652.91
2022-10-07T13:16:56.404Z,101653.13
2022-10-07T13:19:38.963Z,101624.53
2022-10-07T13:22:19.322Z,101640.81
2022-10-07T13:24:49.814Z,101635.34
2022-10-07T13:27:26.409Z,101606.16
2022-10-07T13:29:53.327Z,101585.84
2022-10-07T13:32:25.519Z,101591.38
2022-10-07T13:34:54.606Z,101414.47
2022-10-07T13:37:30.042Z,101616.25
2022-10-07T13:40:26.332Z,101623.78
2022-10-07T13:42:59.048Z,101617.75
2022-10-07T13:45:25.620Z,101570.84
2022-10-07T13:47:52.283Z,101470.84
2022-10-07T13:50:22.721Z,101600.84
2022-10-07T13:52:50.250Z,101547.34
2022-10-07T13:55:25.608Z,101596.16
2022-10-07T13:57:57.293Z,101552.28
2022-10-07T14:00:24.814Z,101553.78
2022-10-07T14:02:51.940Z,101612.03
2022-10-07T14:05:22.947Z,101597.88
2022-10-07T14:07:58.059Z,101600.94
2022-10-07T14:10:29.517Z,101523.72
2022-10-07T14:12:59.889Z,101545.25
2022-10-07T14:15:31.791Z,101583.31
2022-10-07T14:18:04.119Z,101581.69
2022-10-07T14:20:33.525Z,101540.63
2022-10-07T14:23:02.546Z,101534.44
2022-10-07T14:25:31.214Z,101557.16
2022-10-07T14:27:57.577Z,101574.81
2022-10-07T14:30:55.512Z,101480.00
2022-10-07T14:33:59.243Z,101520.88
2022-10-07T14:36:26.251Z,101519.59
2022-10-07T14:38:53.285Z,101583.38
2022-10-07T14:41:21.859Z,101533.25
2022-10-07T14:43:51.713Z,101550.53
2022-10-07T14:46:25.578Z,101567.78
2022-10-07T14:48:53.566Z,101557.28
2022-10-07T14:51:26.875Z,101545.91
2022-10-07T14:53:56.249Z,101555.16
2022-10-07T14:56:31.242Z,101550.34
2022-10-07T14:58:57.653Z,101501.53
2022-10-07T15:01:25.310Z,101538.66
2022-10-07T15:03:51.677Z,101537.19
2022-10-07T15:06:19.639Z,101525.34
2022-10-07T15:08:47.615Z,101539.88
2022-10-07T15:11:18.796Z,101526.69
2022-10-07T15:13:49.985Z,101537.25
2022-10-07T15:16:25.924Z,101542.78
2022-10-07T15:18:53.309Z,101473.16
2022-10-07T15:21:21.981Z,101533.66
2022-10-07T15:23:52.900Z,101541.25
2022-10-07T15:26:23.274Z,101531.56
2022-10-07T15:28:54.955Z,101533.72
2022-10-07T15:31:23.264Z,101460.94
2022-10-07T15:33:50.111Z,101476.09
2022-10-07T15:36:17.646Z,101491.06
2022-10-07T15:38:44.042Z,101531.53
2022-10-07T15:41:28.263Z,101522.19
2022-10-07T15:43:55.952Z,101494.88
2022-10-07T15:46:22.357Z,101490.31
2022-10-07T15:48:49.049Z,101523.53
2022-10-07T15:51:15.353Z,101517.03
2022-10-07T15:53:41.678Z,101522.50
2022-10-07T15:56:10.062Z,101521.56
2022-10-07T15:58:36.368Z,101517.91
2022-10-07T16:01:07.515Z,101516.81
2022-10-07T16:03:39.777Z,101456.16
2022-10-07T16:06:11.035Z,101483.09
2022-10-07T16:08:37.385Z,101492.94
2022-10-07T16:11:06.124Z,101515.72
2022-10-07T16:13:40.468Z,101478.22
2022-10-07T16:16:10.005Z,101445.09
2022-10-07T16:18:38.643Z,101516.41
2022-10-07T16:21:16.198Z,101512.44
2022-10-07T16:23:47.863Z,101513.94
2022-10-07T16:26:22.579Z,101436.50
2022-10-07T16:29:09.722Z,101508.63
2022-10-07T16:31:40.159Z,101504.81
2022-10-07T16:34:08.448Z,101485.22
2022-10-07T16:36:35.852Z,101505.16
2022-10-07T16:39:04.472Z,101476.19
2022-10-07T16:41:32.216Z,101510.19
2022-10-07T16:44:00.085Z,101435.16
2022-10-07T16:46:27.356Z,101498.75
2022-10-07T16:48:54.386Z,101513.22
2022-10-07T16:51:28.606Z,101498.63
2022-10-07T16:53:57.259Z,101453.41
2022-10-07T16:56:23.643Z,101503.44
2022-10-07T16:59:01.131Z,101517.88
2022-10-07T17:01:29.182Z,101505.47
2022-10-07T17:03:57.198Z,101510.56
2022-10-07T17:06:24.926Z,101471.44
2022-10-07T17:08:51.789Z,101477.91
2022-10-07T17:11:28.733Z,101504.50
2022-10-07T17:13:57.704Z,101466.88
2022-10-07T17:16:25.849Z,101427.69
2022-10-07T17:18:52.733Z,101494.16
2022-10-07T17:21:20.049Z,101336.00
2022-10-07T17:23:47.282Z,101499.41
2022-10-07T17:26:15.145Z,101485.38
2022-10-07T17:28:44.961Z,101426.31
2022-10-07T17:31:13.561Z,101413.94
2022-10-07T17:33:42.321Z,101508.66
2022-10-07T17:36:10.488Z,101514.78
2022-10-07T17:38:38.668Z,101508.09
2022-10-07T17:41:21.880Z,101501.63
2022-10-07T17:43:50.406Z,101486.19
2022-10-07T17:46:17.908Z,101498.56
2022-10-07T17:48:45.907Z,101433.69
2022-10-07T17:51:15.072Z,101440.97
2022-10-07T17:53:42.348Z,101519.78
2022-10-07T17:56:11.994Z,101519.16
2022-10-07T17:58:40.475Z,101515.00
2022-10-07T18:01:14.946Z,101523.88
2022-10-07T18:03:42.762Z,101528.41
2022-10-07T18:06:10.970Z,101464.53
2022-10-07T18:08:41.661Z,101453.59
2022-10-07T18:11:09.370Z,101493.28
2022-10-07T18:13:54.809Z,101476.53
2022-10-07T18:16:21.957Z,101439.25
2022-10-07T18:18:56.064Z,101514.03
2022-10-07T18:21:23.825Z,101437.69
2022-10-07T18:23:52.044Z,101515.34
2022-10-07T18:26:18.924Z,101513.03
2022-10-07T18:28:48.640Z,101501.94
2022-10-07T18:31:17.281Z,101506.59
2022-10-07T18:33:44.723Z,101392.75
2022-10-07T18:36:13.851Z,101505.72
2022-10-07T18:38:42.275Z,101274.84
2022-10-07T18:41:11.201Z,101435.34
2022-10-07T18:43:37.913Z,101501.91
2022-10-07T18:46:10.086Z,101400.38
2022-10-07T18:48:38.693Z,101496.50
2022-10-07T18:51:08.058Z,101506.22
2022-10-07T18:53:37.068Z,101501.91
2022-10-07T18:56:06.014Z,101460.16
2022-10-07T18:58:34.406Z,101505.72
2022-10-07T19:01:15.190Z,101352.63
2022-10-07T19:03:41.968Z,101446.06
2022-10-07T19:06:11.680Z,101444.56
2022-10-07T19:08:38.374Z,101488.94
2022-10-07T19:11:10.063Z,101461.75
2022-10-07T19:13:49.801Z,101430.28
2022-10-07T19:16:18.930Z,101506.44
2022-10-07T19:18:46.793Z,101482.53
2022-10-07T19:21:13.891Z,101504.88
2022-10-07T19:23:40.589Z,101506.72
2022-10-07T19:26:08.306Z,101384.47
2022-10-07T19:28:36.899Z,101494.00
2022-10-07T19:31:12.814Z,101493.16
2022-10-07T19:33:39.221Z,101415.50
2022-10-07T19:36:06.916Z,101394.06
2022-10-07T19:38:33.254Z,101434.47
2022-10-07T19:40:59.594Z,101488.09
2022-10-07T19:43:25.912Z,101356.63
2022-10-07T19:45:52.275Z,101360.13
2022-10-07T19:48:18.672Z,101489.13
2022-10-07T19:50:46.008Z,101421.63
2022-10-07T19:53:12.401Z,101480.06
2022-10-07T19:55:44.468Z,101449.59
2022-10-07T19:58:10.758Z,101455.41
2022-10-07T20:00:37.046Z,101415.56
2022-10-07T20:03:03.504Z,101448.13
2022-10-07T20:05:29.975Z,101427.78
2022-10-07T20:07:57.235Z,101488.31
2022-10-07T20:10:25.445Z,101475.22
2022-10-07T20:12:52.701Z,101428.28
2022-10-07T20:15:19.130Z,101490.66
2022-10-07T20:17:45.842Z,101428.91
2022-10-07T20:20:14.375Z,101498.59
2022-10-07T20:22:44.704Z,101471.13
2022-10-07T20:25:14.844Z,101481.03
2022-10-07T20:27:41.203Z,101486.41
2022-10-07T20:30:17.621Z,101336.56
2022-10-07T20:32:44.578Z,101479.16
2022-10-07T20:35:12.134Z,101444.84
2022-10-07T20:37:38.489Z,101402.28
2022-10-07T20:40:23.504Z,101415.06
2022-10-07T20:42:50.928Z,101166.47
2022-10-07T20:45:17.718Z,101466.06
2022-10-07T20:47:45.030Z,101417.25
2022-10-07T20:50:12.017Z,101471.25
2022-10-07T20:52:38.309Z,101483.59
2022-10-07T20:55:06.765Z,101491.41
2022-10-07T20:57:35.826Z,101416.72
2022-10-07T21:00:02.375Z,101380.84
2022-10-07T21:02:29.216Z,101392.03
2022-10-07T21:04:55.653Z,101491.44
2022-10-07T21:07:22.004Z,101482.78
2022-10-07T21:09:48.376Z,101416.25
2022-10-07T21:12:16.767Z,101482.72
2022-10-07T21:14:44.215Z,101367.34
2022-10-07T21:17:11.658Z,101463.28
2022-10-07T21:19:38.259Z,101437.69
2022-10-07T21:22:05.361Z,101416.25
2022-10-07T21:24:35.367Z,101483.75
2022-10-07T21:27:03.534Z,101475.03
2022-10-07T21:29:31.351Z,101470.69
2022-10-07T21:31:58.480Z,101444.97
2022-10-07T21:34:25.012Z,101461.38
2022-10-07T21:36:53.844Z,101418.06
2022-10-07T21:39:22.886Z,101453.72
2022-10-07T21:41:49.325Z,101456.16
2022-10-07T21:44:15.860Z,101455.28
2022-10-07T21:46:42.774Z,101389.38
2022-10-07T21:49:09.701Z,101391.19
2022-10-07T21:51:36.287Z,101399.13
2022-10-07T21:54:03.249Z,101438.81
2022-10-07T21:56:31.649Z,101443.19
2022-10-07T21:59:00.611Z,101404.88
2022-10-07T22:01:28.094Z,101432.91
2022-10-07T22:03:56.144Z,101430.47
2022-10-07T22:06:43.348Z,101346.84
2022-10-07T22:09:10.793Z,101431.66
2022-10-07T22:11:37.733Z,101428.31
2022-10-07T22:14:07.570Z,101406.25
2022-10-07T22:16:37.579Z,101230.78
2022-10-07T22:19:04.944Z,101420.00
2022-10-07T22:21:33.247Z,101438.38
2022-10-07T22:24:02.661Z,101418.41
2022-10-07T22:26:32.563Z,101405.69
2022-10-07T22:28:59.494Z,101424.72
2022-10-07T22:31:26.529Z,101370.66
2022-10-07T22:33:58.505Z,101409.78
2022-10-07T22:36:26.186Z,101415.84
2022-10-07T22:38:55.180Z,101342.16
2022-10-07T22:41:22.953Z,101294.91
2022-10-07T22:43:49.312Z,101401.75
2022-10-07T22:46:18.386Z,101322.34
2022-10-07T22:48:48.472Z,101336.78
2022-10-07T22:51:16.347Z,101370.19
2022-10-07T22:53:46.425Z,101269.50
2022-10-07T22:56:14.656Z,101305.19
2022-10-07T22:58:42.841Z,101367.66
2022-10-07T23:01:13.494Z,101375.38
2022-10-07T23:03:43.922Z,101384.03
2022-10-07T23:06:19.220Z,101319.31
2022-10-07T23:08:47.097Z,101384.16
2022-10-07T23:11:19.498Z,101386.91
2022-10-07T23:13:46.108Z,101322.03
2022-10-07T23:16:15.516Z,101383.69
2022-10-07T23:18:44.807Z,101391.63
2022-10-07T23:21:18.182Z,101390.94
2022-10-07T23:23:47.118Z,101389.16
2022-10-07T23:26:16.594Z,101382.22
2022-10-07T23:28:42.977Z,101353.06
2022-10-07T23:31:12.747Z,101276.00
2022-10-07T23:33:39.323Z,101377.06
2022-10-07T23:36:10.294Z,101295.63
2022-10-07T23:38:47.120Z,101165.03
2022-10-07T23:41:16.166Z,101362.28
2022-10-07T23:43:42.581Z,101364.00
2022-10-07T23:46:13.747Z,101361.41
2022-10-07T23:48:46.785Z,101338.47
2022-10-07T23:51:16.301Z,101340.16
2022-10-07T23:53:42.691Z,101365.09
2022-10-07T23:56:09.035Z,101360.88
2022-10-07T23:58:36.035Z,101292.66
